createdAt,value
2018-03-29T00:00:42.623Z,78.97
2018-03-29T00:03:10.227Z,80.27
2018-03-29T00:05:38.623Z,79.57
2018-03-29T00:08:07.014Z,80.40
2018-03-29T00:10:35.433Z,81.83
2018-03-29T00:13:02.998Z,82.17
2018-03-29T00:15:30.784Z,76.33
2018-03-29T00:17:58.624Z,87.77
2018-03-29T00:20:26.235Z,80.03
2018-03-29T00:22:54.999Z,79.00
2018-03-29T00:25:22.676Z,79.13
2018-03-29T00:27:50.259Z,81.83
2018-03-29T00:30:18.584Z,84.10
2018-03-29T00:32:46.197Z,83.37
2018-03-29T00:35:14.525Z,83.73
2018-03-29T00:37:42.118Z,83.93
2018-03-29T00:40:10.501Z,85.27
2018-03-29T00:42:38.863Z,82.87
2018-03-29T00:45:06.459Z,83.90
2018-03-29T00:47:34.654Z,81.77
2018-03-29T00:50:02.309Z,83.07
2018-03-29T00:52:29.883Z,82.27
2018-03-29T00:54:57.749Z,83.67
2018-03-29T00:57:25.372Z,80.57
2018-03-29T00:59:52.936Z,86.03
2018-03-29T01:02:20.537Z,85.73
2018-03-29T01:04:48.123Z,86.37
2018-03-29T01:07:15.916Z,88.13
2018-03-29T01:09:43.508Z,82.63
2018-03-29T01:12:11.074Z,81.97
2018-03-29T01:14:38.674Z,81.97
2018-03-29T01:17:07.018Z,78.37
2018-03-29T01:19:34.626Z,76.93
2018-03-29T01:22:03.131Z,76.67
2018-03-29T01:24:30.762Z,80.20
2018-03-29T01:26:59.132Z,81.90
2018-03-29T01:29:27.474Z,76.90
2018-03-29T01:31:55.071Z,77.53
2018-03-29T01:34:23.421Z,74.73
2018-03-29T01:36:51.031Z,77.83
2018-03-29T01:39:18.666Z,78.63
2018-03-29T01:41:47.013Z,85.13
2018-03-29T01:44:14.604Z,83.23
2018-03-29T01:46:42.991Z,84.37
2018-03-29T01:49:11.594Z,82.13
2018-03-29T01:51:39.265Z,80.83
2018-03-29T01:54:06.849Z,77.30
2018-03-29T01:56:34.419Z,85.27
2018-03-29T01:59:02.048Z,79.70
2018-03-29T02:01:29.646Z,77.40
2018-03-29T02:03:57.244Z,73.70
2018-03-29T02:06:24.862Z,74.13
2018-03-29T02:08:52.444Z,74.97
2018-03-29T02:11:20.803Z,74.97
2018-03-29T02:13:48.441Z,79.30
2018-03-29T02:16:16.272Z,78.13
2018-03-29T02:18:43.845Z,78.57
2018-03-29T02:21:11.424Z,75.53
2018-03-29T02:23:39.049Z,78.03
2018-03-29T02:26:06.629Z,78.77
2018-03-29T02:28:34.195Z,77.97
2018-03-29T02:31:02.081Z,78.27
2018-03-29T02:33:29.661Z,78.10
2018-03-29T02:35:57.244Z,77.37
2018-03-29T02:38:24.849Z,81.13
2018-03-29T02:40:52.699Z,82.03
2018-03-29T02:43:20.341Z,79.23
2018-03-29T02:45:48.072Z,85.60
2018-03-29T02:48:16.474Z,86.83
2018-03-29T02:50:44.062Z,84.37
2018-03-29T02:53:11.672Z,85.10
2018-03-29T02:55:39.996Z,84.80
2018-03-29T02:58:07.566Z,79.70
2018-03-29T03:00:36.664Z,83.47
2018-03-29T03:03:04.272Z,87.30
2018-03-29T03:05:32.611Z,87.93
2018-03-29T03:08:00.262Z,87.97
2018-03-29T03:10:27.888Z,85.10
2018-03-29T03:12:56.048Z,89.27
2018-03-29T03:15:24.553Z,88.87
2018-03-29T03:17:52.202Z,91.20
2018-03-29T03:20:19.785Z,87.00
2018-03-29T03:22:47.405Z,91.43
2018-03-29T03:25:15.754Z,92.00
2018-03-29T03:27:43.405Z,99.77
2018-03-29T03:30:11.023Z,100.13
2018-03-29T03:32:38.603Z,101.27
2018-03-29T03:35:06.274Z,90.77
2018-03-29T03:37:34.319Z,96.80
2018-03-29T03:40:01.945Z,101.87
2018-03-29T03:42:30.295Z,98.83
2018-03-29T03:44:57.861Z,100.37
2018-03-29T03:47:25.518Z,100.40
2018-03-29T03:49:53.117Z,97.47
2018-03-29T03:52:21.282Z,101.90
2018-03-29T03:54:49.678Z,97.10
2018-03-29T03:57:17.368Z,107.20
2018-03-29T03:59:44.963Z,108.13
2018-03-29T04:02:12.535Z,108.97
2018-03-29T04:04:40.900Z,111.13
2018-03-29T04:07:08.494Z,115.57
2018-03-29T04:09:36.679Z,122.73
2018-03-29T04:12:04.304Z,122.83
2018-03-29T04:14:32.647Z,116.03
2018-03-29T04:17:00.281Z,109.83
2018-03-29T04:19:27.870Z,120.03
2018-03-29T04:21:55.534Z,118.73
2018-03-29T04:24:23.132Z,110.67
2018-03-29T04:26:52.083Z,113.30
2018-03-29T04:29:19.721Z,110.77
2018-03-29T04:31:47.896Z,112.63
2018-03-29T04:34:15.511Z,107.23
2018-03-29T04:36:43.912Z,117.30
2018-03-29T04:39:11.501Z,122.73
2018-03-29T04:41:39.079Z,119.90
2018-03-29T04:44:06.914Z,118.77
2018-03-29T04:46:34.507Z,131.07
2018-03-29T04:49:02.124Z,139.83
2018-03-29T04:51:29.729Z,135.57
2018-03-29T04:53:57.676Z,138.17
2018-03-29T04:56:25.326Z,138.57
2018-03-29T04:58:53.323Z,164.67
2018-03-29T05:01:20.951Z,174.70
2018-03-29T05:03:48.821Z,124.03
2018-03-29T05:06:17.320Z,131.20
2018-03-29T05:08:44.947Z,151.83
2018-03-29T05:11:12.555Z,131.20
2018-03-29T05:13:40.126Z,136.87
2018-03-29T05:16:08.620Z,137.97
2018-03-29T05:18:36.984Z,144.60
2018-03-29T05:21:04.709Z,128.17
2018-03-29T05:23:32.329Z,113.83
2018-03-29T05:26:05.737Z,144.57
2018-03-29T05:28:33.330Z,162.03
2018-03-29T05:31:01.070Z,115.00
2018-03-29T05:33:29.202Z,141.47
2018-03-29T05:35:56.814Z,154.70
2018-03-29T05:38:24.452Z,150.07
2018-03-29T05:40:52.039Z,150.37
2018-03-29T05:43:19.610Z,165.20
2018-03-29T05:45:47.913Z,153.50
2018-03-29T05:48:15.485Z,147.77
2018-03-29T05:50:43.882Z,146.40
2018-03-29T05:53:11.440Z,144.03
2018-03-29T05:55:39.848Z,148.03
2018-03-29T05:58:07.458Z,135.77
2018-03-29T06:00:35.818Z,143.27
2018-03-29T06:03:03.485Z,167.13
2018-03-29T06:05:31.844Z,140.73
2018-03-29T06:08:12.175Z,157.30
2018-03-29T06:10:58.162Z,143.57
2018-03-29T06:13:25.756Z,126.63
2018-03-29T06:15:59.086Z,128.07
2018-03-29T06:21:11.036Z,132.63
2018-03-29T06:23:43.990Z,130.77
2018-03-29T06:26:12.362Z,136.93
2018-03-29T06:28:40.746Z,129.10
2018-03-29T06:31:09.748Z,128.23
2018-03-29T06:33:37.361Z,128.40
2018-03-29T06:36:04.986Z,139.80
2018-03-29T06:38:32.558Z,124.90
2018-03-29T06:41:00.636Z,117.67
2018-03-29T06:43:28.232Z,107.10
2018-03-29T06:45:57.080Z,109.10
2018-03-29T06:48:24.652Z,113.33
2018-03-29T06:50:52.292Z,110.37
2018-03-29T06:53:19.850Z,108.50
2018-03-29T06:55:47.485Z,102.10
2018-03-29T06:58:15.064Z,103.17
2018-03-29T07:00:42.767Z,112.13
2018-03-29T07:03:10.366Z,112.90
2018-03-29T07:05:37.996Z,126.07
2018-03-29T07:08:06.329Z,136.93
2018-03-29T07:10:33.912Z,138.60
2018-03-29T07:13:01.501Z,168.57
2018-03-29T07:15:29.971Z,163.00
2018-03-29T07:17:57.532Z,134.47
2018-03-29T07:20:25.192Z,142.27
2018-03-29T07:22:53.329Z,133.07
2018-03-29T07:25:20.977Z,133.03
2018-03-29T07:27:48.603Z,129.30
2018-03-29T07:30:16.974Z,122.97
2018-03-29T07:32:45.313Z,148.23
2018-03-29T07:35:12.904Z,121.97
2018-03-29T07:37:41.330Z,136.13
2018-03-29T07:40:08.907Z,120.13
2018-03-29T07:42:36.506Z,120.10
2018-03-29T07:45:04.125Z,120.80
2018-03-29T07:47:31.762Z,112.10
2018-03-29T07:49:59.542Z,108.67
2018-03-29T07:52:27.160Z,100.33
2018-03-29T07:54:55.599Z,90.30
2018-03-29T07:57:23.167Z,91.17
2018-03-29T07:59:50.756Z,81.27
2018-03-29T08:02:19.090Z,63.97
2018-03-29T08:04:46.698Z,59.20
2018-03-29T08:07:15.339Z,59.50
2018-03-29T08:09:43.087Z,57.17
2018-03-29T08:12:11.582Z,68.43
2018-03-29T08:14:39.160Z,68.97
2018-03-29T08:17:06.752Z,63.97
2018-03-29T08:19:35.178Z,65.00
2018-03-29T08:22:02.774Z,64.53
2018-03-29T08:24:31.777Z,63.23
2018-03-29T08:26:59.259Z,66.80
2018-03-29T08:29:26.934Z,61.67
2018-03-29T08:31:54.532Z,65.87
2018-03-29T08:34:22.097Z,64.47
2018-03-29T08:36:49.715Z,68.90
2018-03-29T08:39:17.281Z,61.40
2018-03-29T08:41:44.942Z,64.43
2018-03-29T08:44:12.486Z,69.63
2018-03-29T08:46:40.163Z,70.73
2018-03-29T08:49:07.762Z,70.73
2018-03-29T08:51:36.082Z,73.37
2018-03-29T08:54:03.645Z,72.90
2018-03-29T08:56:31.267Z,70.27
2018-03-29T08:58:59.584Z,65.63
2018-03-29T09:01:27.176Z,68.63
2018-03-29T09:03:54.737Z,67.83
2018-03-29T09:06:22.321Z,65.60
2018-03-29T09:08:50.685Z,67.07
2018-03-29T09:11:18.275Z,68.90
2018-03-29T09:13:45.855Z,66.93
2018-03-29T09:16:13.444Z,67.03
2018-03-29T09:18:41.176Z,66.90
2018-03-29T09:21:08.727Z,65.67
2018-03-29T09:23:36.289Z,70.00
2018-03-29T09:26:04.519Z,64.33
2018-03-29T09:28:32.104Z,58.97
2018-03-29T09:30:59.694Z,52.03
2018-03-29T09:33:27.283Z,55.33
2018-03-29T09:35:54.853Z,44.90
2018-03-29T09:38:22.459Z,47.37
2018-03-29T09:40:50.078Z,45.50
2018-03-29T09:43:17.640Z,47.17
2018-03-29T09:45:45.985Z,37.07
2018-03-29T09:48:13.542Z,46.43
2018-03-29T09:50:41.209Z,39.20
2018-03-29T09:53:08.755Z,34.83
2018-03-29T09:55:36.574Z,28.43
2018-03-29T09:58:04.900Z,28.07
2018-03-29T10:00:35.494Z,30.40
2018-03-29T10:03:08.761Z,27.87
2018-03-29T10:05:37.923Z,33.00
2018-03-29T10:08:05.507Z,36.73
2018-03-29T10:10:33.859Z,33.30
2018-03-29T10:13:01.458Z,32.93
2018-03-29T10:15:29.878Z,32.90
2018-03-29T10:17:57.450Z,34.70
2018-03-29T10:20:25.303Z,34.27
2018-03-29T10:22:52.963Z,38.67
2018-03-29T10:25:20.537Z,38.93
2018-03-29T10:27:48.193Z,37.27
2018-03-29T10:30:15.769Z,42.37
2018-03-29T10:32:43.334Z,37.87
2018-03-29T10:35:11.045Z,37.67
2018-03-29T10:37:38.599Z,39.90
2018-03-29T10:40:06.945Z,34.37
2018-03-29T10:42:36.036Z,35.63
2018-03-29T10:45:03.588Z,38.53
2018-03-29T10:47:31.874Z,36.10
2018-03-29T10:49:59.431Z,39.20
2018-03-29T10:52:27.092Z,34.03
2018-03-29T10:54:55.132Z,33.73
2018-03-29T10:57:22.736Z,35.93
2018-03-29T10:59:51.137Z,32.53
2018-03-29T11:02:18.701Z,31.67
2018-03-29T11:04:46.287Z,32.43
2018-03-29T11:07:13.883Z,30.07
2018-03-29T11:09:41.448Z,27.43
2018-03-29T11:12:09.855Z,24.73
2018-03-29T11:14:37.465Z,24.63
2018-03-29T11:17:05.026Z,23.53
2018-03-29T11:19:32.782Z,25.33
2018-03-29T11:22:00.428Z,25.10
2018-03-29T11:24:28.506Z,25.50
2018-03-29T11:26:56.073Z,26.00
2018-03-29T11:29:25.223Z,25.27
2018-03-29T11:31:52.789Z,25.20
2018-03-29T11:34:20.577Z,27.80
2018-03-29T11:36:48.180Z,15.53
2018-03-29T11:39:16.501Z,16.47
2018-03-29T11:41:44.281Z,18.23
2018-03-29T11:44:13.709Z,20.87
2018-03-29T11:46:42.252Z,20.53
2018-03-29T11:49:09.887Z,21.77
2018-03-29T11:51:37.447Z,21.40
2018-03-29T11:54:05.114Z,17.77
2018-03-29T11:56:32.790Z,19.90
2018-03-29T11:59:00.390Z,22.07
2018-03-29T12:01:27.965Z,21.87
2018-03-29T12:03:56.320Z,21.50
2018-03-29T12:06:24.154Z,21.20
2018-03-29T12:08:51.784Z,23.57
2018-03-29T12:11:20.156Z,27.07
2018-03-29T12:13:48.530Z,27.20
2018-03-29T12:16:16.888Z,24.67
2018-03-29T12:18:44.462Z,28.07
2018-03-29T12:21:12.841Z,23.73
2018-03-29T12:23:41.298Z,22.57
2018-03-29T12:26:09.790Z,21.60
2018-03-29T12:28:38.898Z,20.03
2018-03-29T12:31:07.232Z,20.33
2018-03-29T12:33:35.010Z,20.57
2018-03-29T12:36:02.747Z,18.77
2018-03-29T12:38:30.919Z,20.00
2018-03-29T12:40:58.534Z,21.07
2018-03-29T12:43:26.142Z,21.50
2018-03-29T12:45:53.725Z,21.53
2018-03-29T12:48:21.305Z,20.53
2018-03-29T12:50:49.006Z,22.47
2018-03-29T12:53:16.626Z,22.47
2018-03-29T12:55:44.233Z,22.33
2018-03-29T12:58:11.808Z,24.67
2018-03-29T13:00:39.398Z,26.23
2018-03-29T13:03:07.028Z,24.77
2018-03-29T13:05:34.623Z,25.17
2018-03-29T13:08:02.196Z,24.67
2018-03-29T13:10:30.881Z,24.77
2018-03-29T13:12:59.239Z,28.40
2018-03-29T13:15:26.927Z,28.97
2018-03-29T13:17:54.501Z,28.77
2018-03-29T13:20:22.061Z,31.37
2018-03-29T13:22:49.689Z,31.73
2018-03-29T13:25:17.315Z,33.90
2018-03-29T13:27:44.884Z,29.07
2018-03-29T13:30:12.604Z,26.90
2018-03-29T13:32:40.157Z,28.50
2018-03-29T13:35:07.708Z,29.17
2018-03-29T13:37:36.051Z,28.27
2018-03-29T13:40:03.654Z,27.43
2018-03-29T13:42:31.233Z,32.03
2018-03-29T13:44:58.820Z,31.57
2018-03-29T13:47:26.417Z,28.57
2018-03-29T13:49:54.758Z,30.87
2018-03-29T13:52:22.380Z,32.37
2018-03-29T13:54:50.274Z,30.73
2018-03-29T13:57:17.937Z,35.63
2018-03-29T13:59:45.511Z,34.50
2018-03-29T14:02:13.070Z,37.60
2018-03-29T14:04:40.647Z,35.40
2018-03-29T14:07:08.189Z,32.90
2018-03-29T14:09:36.109Z,35.87
2018-03-29T14:12:03.685Z,36.17
2018-03-29T14:14:31.254Z,34.83
2018-03-29T14:16:59.010Z,32.97
2018-03-29T14:19:26.633Z,35.37
2018-03-29T14:21:55.029Z,40.07
2018-03-29T14:24:22.684Z,40.10
2018-03-29T14:26:50.293Z,45.10
2018-03-29T14:29:17.852Z,46.60
2018-03-29T14:31:45.411Z,43.43
2018-03-29T14:34:13.049Z,42.47
2018-03-29T14:36:40.616Z,45.70
2018-03-29T14:39:08.175Z,43.77
2018-03-29T14:41:35.788Z,45.83
2018-03-29T14:44:04.177Z,48.43
2018-03-29T14:46:31.740Z,48.03
2018-03-29T14:48:59.629Z,56.63
2018-03-29T14:51:27.993Z,53.10
2018-03-29T14:53:55.580Z,52.43
2018-03-29T14:56:23.905Z,44.83
2018-03-29T14:58:51.489Z,47.50
2018-03-29T15:01:19.078Z,51.50
2018-03-29T15:03:47.486Z,55.30
2018-03-29T15:06:15.065Z,62.00
2018-03-29T15:08:42.610Z,42.53
2018-03-29T15:11:10.209Z,46.90
2018-03-29T15:13:37.765Z,49.30
2018-03-29T15:16:05.328Z,40.30
2018-03-29T15:18:32.899Z,42.10
2018-03-29T15:21:00.461Z,43.70
2018-03-29T15:23:28.852Z,39.70
2018-03-29T15:25:57.185Z,40.47
2018-03-29T15:28:24.743Z,39.20
2018-03-29T15:30:52.331Z,41.70
2018-03-29T15:33:19.894Z,49.50
2018-03-29T15:35:47.508Z,49.10
2018-03-29T15:38:15.068Z,48.17
2018-03-29T15:40:42.631Z,43.23
2018-03-29T15:43:10.210Z,42.07
2018-03-29T15:45:37.746Z,39.20
2018-03-29T15:48:05.296Z,43.07
2018-03-29T15:50:32.862Z,48.70
2018-03-29T15:53:00.509Z,43.90
2018-03-29T15:55:28.055Z,49.07
2018-03-29T15:57:56.367Z,50.40
2018-03-29T16:00:23.950Z,48.63
2018-03-29T16:02:51.523Z,56.70
2018-03-29T16:05:19.116Z,58.07
2018-03-29T16:07:47.449Z,57.77
2018-03-29T16:10:15.004Z,68.40
2018-03-29T16:12:42.623Z,67.83
2018-03-29T16:15:10.940Z,67.07
2018-03-29T16:17:38.503Z,67.77
2018-03-29T16:20:06.057Z,77.73
2018-03-29T16:22:33.645Z,72.30
2018-03-29T16:25:01.201Z,76.63
2018-03-29T16:27:28.781Z,72.80
2018-03-29T16:29:56.362Z,66.03
2018-03-29T16:32:23.903Z,61.23
2018-03-29T16:34:52.305Z,73.33
2018-03-29T16:37:19.847Z,67.87
2018-03-29T16:39:47.447Z,69.73
2018-03-29T16:42:15.875Z,67.07
2018-03-29T16:44:43.456Z,77.20
2018-03-29T16:47:11.026Z,85.47
2018-03-29T16:49:39.220Z,89.97
2018-03-29T16:52:06.833Z,87.63
2018-03-29T16:54:34.420Z,81.67
2018-03-29T16:57:02.040Z,87.17
2018-03-29T16:59:29.589Z,95.50
2018-03-29T17:01:57.146Z,98.13
2018-03-29T17:04:24.740Z,81.53
2018-03-29T17:06:52.294Z,81.60
2018-03-29T17:09:20.670Z,71.23
2018-03-29T17:11:48.217Z,83.20
2018-03-29T17:14:15.781Z,83.13
2018-03-29T17:16:43.351Z,92.60
2018-03-29T17:19:11.659Z,86.10
2018-03-29T17:21:39.297Z,84.47
2018-03-29T17:24:06.849Z,94.37
2018-03-29T17:26:34.445Z,100.07
2018-03-29T17:29:02.065Z,130.17
2018-03-29T17:31:29.592Z,141.10
2018-03-29T17:33:57.185Z,168.70
2018-03-29T17:36:24.780Z,143.20
2018-03-29T17:38:52.339Z,156.03
2018-03-29T17:41:19.976Z,199.97
2018-03-29T17:43:47.564Z,194.97
2018-03-29T17:46:15.121Z,182.30
2018-03-29T17:48:42.683Z,175.60
2018-03-29T17:51:10.277Z,141.43
2018-03-29T17:53:37.856Z,169.73
2018-03-29T17:56:05.440Z,150.20
2018-03-29T17:58:33.776Z,132.70
2018-03-29T18:01:01.333Z,163.73
2018-03-29T18:03:28.981Z,224.53
2018-03-29T18:05:56.570Z,227.30
2018-03-29T18:08:24.122Z,270.93
2018-03-29T18:10:51.717Z,220.33
2018-03-29T18:13:20.040Z,160.97
2018-03-29T18:15:47.582Z,237.83
2018-03-29T18:18:15.195Z,253.60
2018-03-29T18:20:42.755Z,160.97
2018-03-29T18:23:10.309Z,140.90
2018-03-29T18:25:37.927Z,139.77
2018-03-29T18:28:05.516Z,143.07
2018-03-29T18:30:33.149Z,158.67
2018-03-29T18:33:00.726Z,153.67
2018-03-29T18:35:28.309Z,172.47
2018-03-29T18:37:55.903Z,196.37
2018-03-29T18:40:23.555Z,238.93
2018-03-29T18:42:51.149Z,227.83
2018-03-29T18:45:18.951Z,187.73
2018-03-29T18:47:46.536Z,160.13
2018-03-29T18:50:14.122Z,144.70
2018-03-29T18:52:42.474Z,135.73
2018-03-29T18:55:10.028Z,121.97
2018-03-29T18:57:37.629Z,139.03
2018-03-29T19:00:05.207Z,104.40
2018-03-29T19:02:32.755Z,92.30
2018-03-29T19:05:00.337Z,101.97
2018-03-29T19:07:27.915Z,117.90
2018-03-29T19:09:55.476Z,114.53
2018-03-29T19:12:23.079Z,178.73
2018-03-29T19:14:51.409Z,151.67
2018-03-29T19:17:19.058Z,152.33
2018-03-29T19:19:46.627Z,128.23
2018-03-29T19:22:14.206Z,123.73
2018-03-29T19:24:41.844Z,132.53
2018-03-29T19:27:09.420Z,134.90
2018-03-29T19:29:37.001Z,127.83
2018-03-29T19:32:05.378Z,119.83
2018-03-29T19:34:32.930Z,105.30
2018-03-29T19:37:00.734Z,93.00
2018-03-29T19:39:28.428Z,106.37
2018-03-29T19:41:55.979Z,96.03
2018-03-29T19:44:23.580Z,99.37
2018-03-29T19:46:51.210Z,98.63
2018-03-29T19:49:19.165Z,96.53
2018-03-29T19:51:46.754Z,98.73
2018-03-29T19:54:14.386Z,106.10
2018-03-29T19:56:42.774Z,92.27
2018-03-29T19:59:10.360Z,89.93
2018-03-29T20:01:38.000Z,102.17
2018-03-29T20:04:05.570Z,110.17
2018-03-29T20:06:33.604Z,89.40
2018-03-29T20:09:01.946Z,108.73
2018-03-29T20:11:31.003Z,108.50
2018-03-29T20:13:59.359Z,112.43
2018-03-29T20:16:29.214Z,118.83
2018-03-29T20:18:58.335Z,141.17
2018-03-29T20:21:26.403Z,154.47
2018-03-29T20:23:54.000Z,150.13
2018-03-29T20:26:21.627Z,166.37
2018-03-29T20:28:49.250Z,147.47
2018-03-29T20:31:16.768Z,159.13
2018-03-29T20:33:44.409Z,175.27
2018-03-29T20:36:11.984Z,183.23
2018-03-29T20:38:39.589Z,183.90
2018-03-29T20:41:07.204Z,192.90
2018-03-29T20:43:35.590Z,193.60
2018-03-29T20:46:03.970Z,135.97
2018-03-29T20:48:31.753Z,157.97
2018-03-29T20:50:59.335Z,191.00
2018-03-29T20:53:26.949Z,192.47
2018-03-29T20:55:55.390Z,174.73
2018-03-29T20:58:23.703Z,177.53
2018-03-29T21:00:52.077Z,157.57
2018-03-29T21:03:20.482Z,177.17
2018-03-29T21:05:48.145Z,186.90
2018-03-29T21:08:15.718Z,176.17
2018-03-29T21:10:43.273Z,158.17
2018-03-29T21:13:10.870Z,155.80
2018-03-29T21:15:38.429Z,152.63
2018-03-29T21:18:05.979Z,130.80
2018-03-29T21:20:33.576Z,101.37
2018-03-29T21:23:01.917Z,104.10
2018-03-29T21:25:29.556Z,108.37
2018-03-29T21:27:57.146Z,96.63
2018-03-29T21:30:24.705Z,81.73
2018-03-29T21:32:52.315Z,77.90
2018-03-29T21:35:19.908Z,74.73
2018-03-29T21:37:47.469Z,76.87
2018-03-29T21:40:15.061Z,67.17
2018-03-29T21:42:42.615Z,89.63
2018-03-29T21:45:10.234Z,90.63
2018-03-29T21:47:37.793Z,76.70
2018-03-29T21:50:05.366Z,61.77
2018-03-29T21:52:32.951Z,63.57
2018-03-29T21:55:00.525Z,62.10
2018-03-29T21:57:28.072Z,71.40
2018-03-29T21:59:55.659Z,119.73
2018-03-29T22:02:23.245Z,170.00
2018-03-29T22:04:50.813Z,165.67
2018-03-29T22:07:18.373Z,154.30
2018-03-29T22:09:45.951Z,108.80
2018-03-29T22:12:13.510Z,111.57
2018-03-29T22:14:41.079Z,140.80
2018-03-29T22:17:08.634Z,152.77
2018-03-29T22:19:36.247Z,147.47
2018-03-29T22:22:04.635Z,138.80
2018-03-29T22:24:32.987Z,127.47
2018-03-29T22:27:00.549Z,125.97
2018-03-29T22:29:28.144Z,118.00
2018-03-29T22:31:55.711Z,112.40
2018-03-29T22:34:23.335Z,123.83
2018-03-29T22:36:51.264Z,120.40
2018-03-29T22:39:18.827Z,129.80
2018-03-29T22:41:46.376Z,108.57
2018-03-29T22:44:13.959Z,113.47
2018-03-29T22:46:41.521Z,133.80
2018-03-29T22:49:09.123Z,134.13
2018-03-29T22:51:37.465Z,106.83
2018-03-29T22:54:05.029Z,114.00
2018-03-29T22:56:32.624Z,124.93
2018-03-29T22:59:00.231Z,153.80
2018-03-29T23:01:27.878Z,129.33
2018-03-29T23:03:56.212Z,127.93
2018-03-29T23:06:23.845Z,137.93
2018-03-29T23:08:52.024Z,174.33
2018-03-29T23:11:19.566Z,182.70
2018-03-29T23:13:47.140Z,180.50
2018-03-29T23:16:14.715Z,160.93
2018-03-29T23:18:42.311Z,139.00
2018-03-29T23:21:09.878Z,155.30
2018-03-29T23:23:37.837Z,176.73
2018-03-29T23:26:05.397Z,170.37
2018-03-29T23:28:32.949Z,173.30
2018-03-29T23:31:00.748Z,185.47
2018-03-29T23:33:28.330Z,195.43
2018-03-29T23:35:55.922Z,200.07
2018-03-29T23:38:23.537Z,201.67
2018-03-29T23:40:51.170Z,206.13
2018-03-29T23:43:18.728Z,195.17
2018-03-29T23:45:46.334Z,199.40
2018-03-29T23:48:13.907Z,192.40
2018-03-29T23:50:41.460Z,179.77
2018-03-29T23:53:09.093Z,186.50
2018-03-29T23:55:36.652Z,184.63
2018-03-29T23:58:19.022Z,185.27
